Time;durP1;ratioP1;P1;durP2;ratioP2;P2;SDS_P1;SDS_P2;PMS_P1;PMS_P2;Temp;Humidity;BMP_temperature;BMP_pressure;BME280_temperature;BME280_humidity;BME280_pressure;Samples;Min_cycle;Max_cycle;Signal;HPM_P1;HPM_P2
2023/05/31 00:00:58;;;;;;;3.10;1.53;;;11.40;56.60;;;;;;2062998;28;20772;-68
2023/05/31 00:01:59;;;;;;;2.53;1.60;;;11.30;56.30;;;;;;2056120;28;20215;-68
2023/05/31 00:03:00;;;;;;;3.70;1.77;;;11.30;57.30;;;;;;2056700;28;20226;-69
2023/05/31 00:04:02;;;;;;;1.97;1.50;;;11.20;57.00;;;;;;2061928;28;20619;-68
2023/05/31 00:05:03;;;;;;;2.45;1.65;;;11.20;57.70;;;;;;2059620;28;20182;-68
2023/05/31 00:06:04;;;;;;;4.87;1.63;;;11.20;57.90;;;;;;2058285;28;20642;-69
2023/05/31 00:07:06;;;;;;;7.67;2.83;;;11.20;58.30;;;;;;2066168;28;20474;-69
2023/05/31 00:08:06;;;;;;;2.28;1.42;;;11.20;58.70;;;;;;2052519;28;20437;-69
2023/05/31 00:09:07;;;;;;;1.80;1.40;;;11.20;57.70;;;;;;2053608;28;20192;-69
2023/05/31 00:10:09;;;;;;;6.18;2.00;;;11.20;58.00;;;;;;2059915;28;20696;-68
2023/05/31 00:11:09;;;;;;;2.53;1.60;;;11.20;57.40;;;;;;2052028;28;20194;-68
2023/05/31 00:12:10;;;;;;;1.67;1.30;;;11.20;56.80;;;;;;2059495;28;20320;-68
2023/05/31 00:13:11;;;;;;;2.70;1.57;;;11.20;56.50;;;;;;2060713;28;20196;-68
2023/05/31 00:14:12;;;;;;;2.70;1.60;;;11.20;56.40;;;;;;2050442;28;20302;-68
2023/05/31 00:15:14;;;;;;;3.85;1.80;;;11.20;56.80;;;;;;2055284;28;20190;-68
2023/05/31 00:16:14;;;;;;;2.17;1.50;;;11.20;56.50;;;;;;2059916;28;20694;-68
2023/05/31 00:17:15;;;;;;;3.27;1.73;;;11.20;57.10;;;;;;2055947;28;20206;-69
2023/05/31 00:18:16;;;;;;;2.63;1.70;;;11.10;58.10;;;;;;2061334;28;20198;-68
2023/05/31 00:19:17;;;;;;;4.30;1.70;;;11.10;58.50;;;;;;2055994;28;20214;-68
2023/05/31 00:20:18;;;;;;;4.57;2.03;;;11.10;58.50;;;;;;2054721;28;20217;-68
2023/05/31 00:21:19;;;;;;;4.95;1.63;;;11.10;58.20;;;;;;2053799;28;20210;-68
2023/05/31 00:22:21;;;;;;;4.00;1.70;;;11.10;58.20;;;;;;2053872;28;20266;-68
2023/05/31 00:23:22;;;;;;;2.50;1.75;;;11.10;58.20;;;;;;2059860;28;20577;-68
2023/05/31 00:24:23;;;;;;;2.70;1.60;;;11.10;60.00;;;;;;2058799;28;20249;-68
2023/05/31 00:25:24;;;;;;;5.10;1.70;;;11.10;59.00;;;;;;2045862;28;20219;-68
2023/05/31 00:26:24;;;;;;;3.40;1.80;;;11.10;58.80;;;;;;2046621;28;20790;-68
2023/05/31 00:27:25;;;;;;;4.87;1.77;;;11.00;58.90;;;;;;2047743;28;20239;-68
2023/05/31 00:28:26;;;;;;;4.70;1.63;;;11.00;59.40;;;;;;2062561;28;20229;-68
2023/05/31 00:29:28;;;;;;;2.95;1.50;;;10.90;59.40;;;;;;2060769;28;20617;-69
2023/05/31 00:30:29;;;;;;;7.60;1.80;;;10.90;59.10;;;;;;2063317;28;20251;-67
2023/05/31 00:31:30;;;;;;;3.97;2.10;;;10.90;59.00;;;;;;2068026;28;20743;-68
2023/05/31 00:32:31;;;;;;;4.30;1.80;;;10.90;59.60;;;;;;2055422;28;20231;-67
2023/05/31 00:33:31;;;;;;;3.30;1.53;;;11.00;59.80;;;;;;2061429;28;20266;-67
2023/05/31 00:34:32;;;;;;;3.40;2.00;;;10.80;60.00;;;;;;2059402;28;20246;-69
2023/05/31 00:35:33;;;;;;;3.23;1.67;;;10.90;60.00;;;;;;2059227;28;20255;-69
2023/05/31 00:36:33;;;;;;;3.20;1.90;;;11.00;59.80;;;;;;2056542;28;20233;-69
2023/05/31 00:37:37;;;;;;;3.17;1.90;;;11.00;59.60;;;;;;2061759;28;20250;-69
2023/05/31 00:38:38;;;;;;;2.17;1.70;;;11.00;60.40;;;;;;2062041;28;20320;-69
2023/05/31 00:39:38;;;;;;;5.43;1.70;;;10.90;60.40;;;;;;2054212;28;20720;-69
2023/05/31 00:40:39;;;;;;;4.50;1.83;;;11.00;60.20;;;;;;2051176;28;20705;-69
2023/05/31 00:41:40;;;;;;;3.37;1.93;;;11.00;59.90;;;;;;2057239;28;20233;-69
2023/05/31 00:42:41;;;;;;;3.03;1.77;;;10.90;61.10;;;;;;2039997;28;20230;-69
2023/05/31 00:43:41;;;;;;;2.23;1.70;;;10.80;61.00;;;;;;2046959;28;21068;-69
2023/05/31 00:44:42;;;;;;;3.10;1.70;;;10.70;60.80;;;;;;2053504;28;20237;-68
2023/05/31 00:45:43;;;;;;;3.80;1.70;;;10.70;61.10;;;;;;2052935;28;20229;-69
2023/05/31 00:46:44;;;;;;;4.40;1.70;;;10.70;61.00;;;;;;2054402;28;20226;-69
2023/05/31 00:47:45;;;;;;;3.22;1.55;;;10.60;61.10;;;;;;2056925;28;20683;-69
2023/05/31 00:48:46;;;;;;;2.93;1.40;;;10.70;62.10;;;;;;2057234;28;20221;-69
2023/05/31 00:49:46;;;;;;;5.77;2.03;;;10.60;62.10;;;;;;2051036;28;20709;-69
2023/05/31 00:50:49;;;;;;;5.93;1.77;;;10.60;61.90;;;;;;2037622;28;20239;-69
2023/05/31 00:51:50;;;;;;;3.42;1.65;;;10.60;62.50;;;;;;2052670;28;20371;-69
2023/05/31 00:52:53;;;;;;;3.43;1.50;;;10.50;63.10;;;;;;2056863;28;20219;-69
2023/05/31 00:53:54;;;;;;;5.18;2.10;;;10.60;63.10;;;;;;2065319;28;20226;-69
2023/05/31 00:54:55;;;;;;;3.38;1.80;;;10.60;63.50;;;;;;2060595;28;20745;-69
2023/05/31 00:55:55;;;;;;;3.67;1.77;;;10.50;63.00;;;;;;2050987;28;20231;-69
2023/05/31 00:56:57;;;;;;;3.13;1.63;;;10.60;62.30;;;;;;2043722;29;20299;-69
2023/05/31 00:57:58;;;;;;;2.45;1.50;;;10.60;63.40;;;;;;2058854;28;20287;-69
2023/05/31 00:59:00;;;;;;;5.17;1.60;;;10.60;62.60;;;;;;2066343;28;20822;-68
2023/05/31 01:00:01;;;;;;;3.15;1.77;;;10.60;62.70;;;;;;2068000;28;20467;-70
2023/05/31 01:01:02;;;;;;;3.13;1.87;;;10.50;62.50;;;;;;2063476;28;20227;-69
2023/05/31 01:02:04;;;;;;;2.85;1.70;;;10.60;62.70;;;;;;2060991;28;20189;-69
2023/05/31 01:03:08;;;;;;;2.67;1.50;;;10.60;62.90;;;;;;2052869;28;20190;-70
2023/05/31 01:04:10;;;;;;;2.03;1.63;;;10.50;62.90;;;;;;2062012;28;20217;-69
2023/05/31 01:05:11;;;;;;;3.15;1.38;;;10.50;63.90;;;;;;2057525;28;20191;-69
2023/05/31 01:06:12;;;;;;;4.77;1.70;;;10.50;63.20;;;;;;2068869;28;20236;-69
2023/05/31 01:07:13;;;;;;;3.47;1.77;;;10.50;63.20;;;;;;2061759;28;20733;-69
2023/05/31 01:08:14;;;;;;;6.07;1.93;;;10.40;62.90;;;;;;2061923;28;20297;-69
2023/05/31 01:09:15;;;;;;;3.58;2.13;;;10.50;63.40;;;;;;2063473;28;20190;-68
2023/05/31 01:10:16;;;;;;;3.47;1.88;;;10.50;63.30;;;;;;2060764;28;20182;-69
2023/05/31 01:11:58;;;;;;;3.00;1.90;;;10.40;63.50;;;;;;2064718;28;20666;-69
2023/05/31 01:13:11;;;;;;;2.65;1.63;;;10.40;64.00;;;;;;2063058;28;20220;-71
2023/05/31 01:14:42;;;;;;;2.83;1.77;;;10.10;64.80;;;;;;2051885;28;20218;-69
2023/05/31 01:16:17;;;;;;;4.97;1.88;;;10.10;65.20;;;;;;2054748;28;20237;-69
2023/05/31 01:17:59;;;;;;;4.00;2.00;;;10.00;65.60;;;;;;2051091;28;20281;-69
2023/05/31 01:19:05;;;;;;;4.57;1.63;;;10.00;66.50;;;;;;2050253;28;20227;-71
2023/05/31 01:20:09;;;;;;;4.07;1.77;;;10.00;66.50;;;;;;2060720;28;20186;-69
2023/05/31 01:21:11;;;;;;;3.42;1.60;;;10.00;66.40;;;;;;2054204;28;20190;-69
2023/05/31 01:22:51;;;;;;;4.68;2.05;;;10.00;66.50;;;;;;2053022;28;20190;-69
2023/05/31 01:24:26;;;;;;;4.72;1.80;;;10.00;66.40;;;;;;2058001;28;21011;-69
2023/05/31 01:25:57;;;;;;;3.55;1.98;;;10.10;66.90;;;;;;2063622;28;20374;-69
2023/05/31 01:27:01;;;;;;;4.88;1.90;;;10.00;68.10;;;;;;2055611;28;20222;-69
2023/05/31 01:28:09;;;;;;;5.05;2.00;;;9.90;68.00;;;;;;2039629;29;20224;-69
2023/05/31 01:29:18;;;;;;;4.25;1.80;;;10.00;67.60;;;;;;2054585;28;20202;-69
2023/05/31 01:30:21;;;;;;;4.10;1.77;;;10.10;67.30;;;;;;2061228;28;20306;-69
2023/05/31 01:31:22;;;;;;;3.20;1.90;;;10.10;68.00;;;;;;2064427;28;20234;-69
2023/05/31 01:32:24;;;;;;;2.95;1.90;;;10.10;68.00;;;;;;2063937;28;20234;-69
2023/05/31 01:33:27;;;;;;;4.22;1.77;;;10.10;67.40;;;;;;2052311;28;20245;-69
2023/05/31 01:34:28;;;;;;;4.72;2.20;;;10.20;67.00;;;;;;2055309;28;20242;-69
2023/05/31 01:35:28;;;;;;;3.63;2.03;;;10.20;67.10;;;;;;2054588;28;20881;-69
2023/05/31 01:36:29;;;;;;;4.20;2.20;;;10.20;67.70;;;;;;2062987;28;20237;-68
2023/05/31 01:37:30;;;;;;;3.00;2.00;;;10.20;67.10;;;;;;2064576;28;20230;-68
2023/05/31 01:38:31;;;;;;;7.20;2.10;;;10.20;67.10;;;;;;2065530;28;20249;-69
2023/05/31 01:39:31;;;;;;;3.87;1.87;;;10.30;67.10;;;;;;2062303;28;20732;-69
2023/05/31 01:40:34;;;;;;;2.60;1.87;;;10.20;67.20;;;;;;2060362;28;20261;-69
2023/05/31 01:41:41;;;;;;;2.78;1.73;;;10.30;67.70;;;;;;2056309;28;20231;-69
2023/05/31 01:42:43;;;;;;;3.03;1.80;;;10.30;67.50;;;;;;2055864;28;20266;-69
2023/05/31 01:43:46;;;;;;;4.60;1.90;;;10.40;67.10;;;;;;2061047;28;20226;-69
2023/05/31 01:44:49;;;;;;;5.10;1.73;;;10.30;67.00;;;;;;2066977;28;20228;-69
2023/05/31 01:45:51;;;;;;;5.15;1.92;;;10.40;67.70;;;;;;2060314;28;20225;-69
2023/05/31 01:46:52;;;;;;;2.10;1.45;;;10.30;67.70;;;;;;2062312;28;20233;-69
2023/05/31 01:48:01;;;;;;;2.75;1.52;;;10.30;67.50;;;;;;2049166;28;20300;-69
2023/05/31 01:49:02;;;;;;;3.65;1.92;;;10.20;68.00;;;;;;2053613;28;20286;-69
2023/05/31 01:50:04;;;;;;;6.43;1.83;;;10.30;68.10;;;;;;2062124;28;20185;-69
2023/05/31 01:51:11;;;;;;;6.45;2.00;;;10.20;68.60;;;;;;2061482;28;20276;-68
2023/05/31 01:52:15;;;;;;;5.93;1.80;;;10.20;68.10;;;;;;2064828;28;20639;-69
2023/05/31 01:53:17;;;;;;;3.75;1.88;;;10.20;68.30;;;;;;2059970;28;20201;-69
2023/05/31 01:54:17;;;;;;;3.75;2.17;;;10.20;68.10;;;;;;2052170;28;20198;-69
2023/05/31 01:55:19;;;;;;;4.20;2.00;;;10.20;68.00;;;;;;2054644;28;20191;-69
2023/05/31 01:56:21;;;;;;;4.82;2.13;;;10.20;68.30;;;;;;2060352;28;20248;-69
2023/05/31 01:57:22;;;;;;;2.53;1.77;;;10.30;68.10;;;;;;2056055;28;20251;-70
2023/05/31 01:58:27;;;;;;;5.38;1.90;;;10.20;67.70;;;;;;2061856;28;20245;-69
2023/05/31 01:59:30;;;;;;;2.88;1.75;;;10.30;68.70;;;;;;2046774;28;20249;-69
2023/05/31 02:00:31;;;;;;;4.20;2.00;;;10.20;68.80;;;;;;2051945;28;20772;-69
2023/05/31 02:01:32;;;;;;;4.83;1.90;;;10.30;68.30;;;;;;2058572;28;20230;-69
2023/05/31 02:02:34;;;;;;;4.27;1.73;;;10.20;69.30;;;;;;2057025;28;20245;-69
2023/05/31 02:03:35;;;;;;;3.63;1.90;;;10.10;69.90;;;;;;2055868;28;20284;-69
2023/05/31 02:04:36;;;;;;;2.80;1.97;;;10.20;68.60;;;;;;2041246;28;20353;-69
2023/05/31 02:05:36;;;;;;;3.87;2.17;;;10.30;68.90;;;;;;2054328;28;20475;-68
2023/05/31 02:06:37;;;;;;;4.30;1.70;;;10.20;68.00;;;;;;2063304;28;20841;-69
2023/05/31 02:07:44;;;;;;;4.57;2.07;;;10.20;68.70;;;;;;2052268;28;20239;-69
2023/05/31 02:08:45;;;;;;;4.18;2.00;;;10.00;69.30;;;;;;2047897;28;20240;-69
2023/05/31 02:09:46;;;;;;;3.92;2.00;;;10.10;69.20;;;;;;2054074;28;20232;-69
2023/05/31 02:10:46;;;;;;;4.93;2.20;;;10.10;69.20;;;;;;2062319;28;20272;-69
2023/05/31 02:11:47;;;;;;;5.77;2.17;;;10.10;69.20;;;;;;2059646;28;20772;-69
2023/05/31 02:12:50;;;;;;;4.33;2.20;;;10.20;69.10;;;;;;2062196;28;20291;-69
2023/05/31 02:13:51;;;;;;;1.98;1.48;;;10.20;68.70;;;;;;2054097;28;20234;-68
2023/05/31 02:14:51;;;;;;;3.10;1.80;;;10.20;69.00;;;;;;2057127;28;20233;-69
2023/05/31 02:15:53;;;;;;;3.97;2.30;;;10.20;68.90;;;;;;2065049;28;20224;-69
2023/05/31 02:16:54;;;;;;;4.32;2.10;;;10.20;68.70;;;;;;2062555;28;20304;-69
2023/05/31 02:17:56;;;;;;;4.27;2.10;;;10.20;68.70;;;;;;2064270;28;20750;-70
2023/05/31 02:18:58;;;;;;;2.92;2.00;;;10.20;69.00;;;;;;2057292;28;20309;-69
2023/05/31 02:20:02;;;;;;;2.42;1.52;;;10.20;69.50;;;;;;2060120;28;20304;-69
2023/05/31 02:21:03;;;;;;;4.88;1.98;;;10.20;69.40;;;;;;2058621;28;20687;-70
2023/05/31 02:22:04;;;;;;;5.60;2.00;;;10.20;69.30;;;;;;2056131;28;20678;-69
2023/05/31 02:23:05;;;;;;;4.30;2.00;;;10.20;69.40;;;;;;2059143;28;20192;-69
2023/05/31 02:24:06;;;;;;;3.10;1.98;;;10.10;69.80;;;;;;2058954;28;20200;-69
2023/05/31 02:25:12;;;;;;;4.93;2.00;;;10.10;70.00;;;;;;2059002;28;20194;-69
2023/05/31 02:26:13;;;;;;;4.10;2.40;;;10.10;71.50;;;;;;2057270;28;20225;-69
2023/05/31 02:27:16;;;;;;;3.77;2.00;;;10.00;70.50;;;;;;2062334;28;20534;-69
2023/05/31 02:28:17;;;;;;;4.53;2.22;;;9.90;71.00;;;;;;2060289;28;20193;-69
2023/05/31 02:29:18;;;;;;;5.20;1.95;;;9.90;71.00;;;;;;2065480;28;20226;-69
2023/05/31 02:30:19;;;;;;;9.17;2.20;;;9.80;71.40;;;;;;2056650;28;20621;-69
2023/05/31 02:31:21;;;;;;;2.70;1.85;;;9.90;71.50;;;;;;2064134;28;20300;-69
2023/05/31 02:32:21;;;;;;;4.00;2.45;;;9.90;71.20;;;;;;2068339;28;20233;-69
2023/05/31 02:33:23;;;;;;;2.33;1.67;;;9.90;71.00;;;;;;2065454;28;20271;-69
2023/05/31 02:34:23;;;;;;;3.30;1.77;;;9.90;72.20;;;;;;2059360;28;20268;-69
2023/05/31 02:35:25;;;;;;;4.67;1.90;;;10.00;70.90;;;;;;2058132;28;20291;-69
2023/05/31 02:36:28;;;;;;;4.75;1.83;;;10.00;71.10;;;;;;2067893;28;20263;-69
2023/05/31 02:37:30;;;;;;;4.20;1.92;;;9.90;71.00;;;;;;2064351;28;20231;-69
2023/05/31 02:38:31;;;;;;;3.05;1.90;;;9.90;71.30;;;;;;2065309;28;20602;-68
2023/05/31 02:39:31;;;;;;;4.07;2.17;;;9.90;71.30;;;;;;2063971;28;20249;-69
2023/05/31 02:40:32;;;;;;;4.87;2.20;;;9.90;71.50;;;;;;2053673;28;20239;-69
2023/05/31 02:41:33;;;;;;;5.27;1.90;;;9.80;72.40;;;;;;2058392;28;20257;-69
2023/05/31 02:42:40;;;;;;;4.27;2.00;;;9.80;72.60;;;;;;2060740;28;20238;-69
2023/05/31 02:43:41;;;;;;;5.10;2.05;;;9.80;72.90;;;;;;2055428;28;20236;-69
2023/05/31 02:44:42;;;;;;;2.80;2.00;;;9.70;73.00;;;;;;2059100;28;20273;-69
2023/05/31 02:45:42;;;;;;;4.67;2.10;;;9.70;74.30;;;;;;2059123;28;20230;-69
2023/05/31 02:46:43;;;;;;;3.07;1.97;;;9.70;72.90;;;;;;2058821;28;20239;-69
2023/05/31 02:47:44;;;;;;;3.70;2.10;;;9.80;73.10;;;;;;2055456;28;20231;-69
2023/05/31 02:48:45;;;;;;;5.87;2.20;;;9.70;73.10;;;;;;2056008;28;20223;-69
2023/05/31 02:49:45;;;;;;;3.47;1.93;;;9.70;73.00;;;;;;2056243;28;20242;-69
2023/05/31 02:50:46;;;;;;;5.43;1.93;;;9.60;73.30;;;;;;2056900;28;20234;-70
2023/05/31 02:51:47;;;;;;;4.87;2.20;;;9.60;73.60;;;;;;2060491;28;20277;-69
2023/05/31 02:52:47;;;;;;;4.53;2.40;;;9.70;74.40;;;;;;2052546;28;20261;-69
2023/05/31 02:53:48;;;;;;;3.03;2.00;;;9.60;75.00;;;;;;2054950;28;20269;-69
2023/05/31 02:54:49;;;;;;;3.77;2.10;;;9.60;75.30;;;;;;2068563;28;20320;-69
2023/05/31 02:55:51;;;;;;;4.95;2.38;;;9.60;75.60;;;;;;2067666;28;20219;-69
2023/05/31 02:56:53;;;;;;;4.40;2.25;;;9.50;75.50;;;;;;2060091;28;20228;-69
2023/05/31 02:57:54;;;;;;;4.20;1.75;;;9.50;75.50;;;;;;2054120;28;20228;-69
2023/05/31 02:58:56;;;;;;;5.40;1.98;;;9.50;75.30;;;;;;2046124;29;20236;-69
2023/05/31 03:00:11;;;;;;;4.30;2.50;;;9.60;75.10;;;;;;2051419;28;20220;-69
2023/05/31 03:01:13;;;;;;;3.20;1.80;;;9.50;75.60;;;;;;2056452;28;20288;-69
2023/05/31 03:02:14;;;;;;;4.97;1.90;;;9.50;75.80;;;;;;2057735;28;20198;-69
2023/05/31 03:03:18;;;;;;;3.20;2.20;;;9.50;76.10;;;;;;2067931;28;20201;-70
2023/05/31 03:04:19;;;;;;;4.65;1.83;;;9.40;76.10;;;;;;2045573;28;20202;-69
2023/05/31 03:05:20;;;;;;;3.27;1.80;;;9.40;76.60;;;;;;2051871;28;20275;-69
2023/05/31 03:06:21;;;;;;;4.68;2.05;;;9.40;76.50;;;;;;2055807;28;20242;-69
2023/05/31 03:07:22;;;;;;;2.83;1.87;;;9.50;76.50;;;;;;2065525;28;20242;-69
2023/05/31 03:08:23;;;;;;;3.83;2.00;;;9.60;75.90;;;;;;2067939;28;20495;-69
2023/05/31 03:09:23;;;;;;;2.90;1.97;;;9.60;75.60;;;;;;2060477;28;20302;-69
2023/05/31 03:10:24;;;;;;;3.40;2.20;;;9.50;75.90;;;;;;2060292;28;20242;-69
2023/05/31 03:11:25;;;;;;;3.90;1.83;;;9.50;76.10;;;;;;2059492;28;20233;-68
2023/05/31 03:12:27;;;;;;;3.07;1.73;;;9.50;76.50;;;;;;2067414;28;20725;-69
2023/05/31 03:13:27;;;;;;;2.65;1.90;;;9.60;76.20;;;;;;2062993;28;20235;-69
2023/05/31 03:14:28;;;;;;;3.87;2.13;;;9.60;75.90;;;;;;2063187;28;20740;-69
2023/05/31 03:15:29;;;;;;;4.13;2.40;;;9.50;76.30;;;;;;2063449;28;20248;-68
2023/05/31 03:16:30;;;;;;;4.87;2.03;;;9.50;76.30;;;;;;2056533;28;20533;-69
2023/05/31 03:17:31;;;;;;;3.25;1.98;;;9.60;76.20;;;;;;2056666;28;20242;-69
2023/05/31 03:18:31;;;;;;;7.07;2.03;;;9.50;76.10;;;;;;2059862;28;20761;-69
2023/05/31 03:19:33;;;;;;;3.27;2.00;;;9.50;76.50;;;;;;2059116;28;20239;-69
2023/05/31 03:20:35;;;;;;;5.40;2.30;;;9.50;76.30;;;;;;2055718;28;20231;-69
2023/05/31 03:21:36;;;;;;;2.38;1.80;;;9.60;76.00;;;;;;2051271;28;20232;-69
2023/05/31 03:22:37;;;;;;;3.40;1.70;;;9.60;75.90;;;;;;2061892;28;20243;-69
2023/05/31 03:23:38;;;;;;;2.97;1.87;;;9.60;75.70;;;;;;2052924;28;20302;-69
2023/05/31 03:24:38;;;;;;;4.00;2.00;;;9.50;75.80;;;;;;2060166;28;20326;-69
2023/05/31 03:25:39;;;;;;;4.83;2.40;;;9.60;75.50;;;;;;2058839;28;20701;-68
2023/05/31 03:26:40;;;;;;;3.67;1.73;;;9.50;75.70;;;;;;2060350;28;20686;-69
2023/05/31 03:27:42;;;;;;;3.57;2.27;;;9.50;75.80;;;;;;2069354;28;20316;-69
2023/05/31 03:28:43;;;;;;;5.03;2.10;;;9.50;75.80;;;;;;2063104;28;20291;-69
2023/05/31 03:29:44;;;;;;;4.30;1.83;;;9.60;75.70;;;;;;2055290;28;20271;-69
2023/05/31 03:30:45;;;;;;;3.40;2.00;;;9.60;75.40;;;;;;2049330;28;20226;-69
2023/05/31 03:31:46;;;;;;;2.67;1.80;;;9.60;75.70;;;;;;2043832;28;20232;-69
2023/05/31 03:32:47;;;;;;;5.30;2.07;;;9.50;75.60;;;;;;2044996;28;20332;-69
2023/05/31 03:33:52;;;;;;;3.90;2.10;;;9.50;77.10;;;;;;2057031;28;20739;-69
2023/05/31 03:34:53;;;;;;;4.38;2.00;;;9.40;76.70;;;;;;2061654;28;20226;-69
2023/05/31 03:35:54;;;;;;;2.67;1.70;;;9.40;76.50;;;;;;2059997;28;20271;-69
2023/05/31 03:36:55;;;;;;;3.77;2.30;;;9.40;76.50;;;;;;2060153;28;20308;-69
2023/05/31 03:37:57;;;;;;;4.63;2.30;;;9.40;76.90;;;;;;2059435;28;20271;-69
2023/05/31 03:38:58;;;;;;;3.85;2.00;;;9.40;77.40;;;;;;2060151;28;20765;-69
2023/05/31 03:39:58;;;;;;;2.83;1.83;;;9.40;77.40;;;;;;2062379;28;20229;-69
2023/05/31 03:41:00;;;;;;;4.63;2.43;;;9.40;76.70;;;;;;2050642;28;20253;-72
2023/05/31 03:42:01;;;;;;;4.78;1.92;;;9.50;76.60;;;;;;2056940;28;20179;-69
2023/05/31 03:43:02;;;;;;;2.88;1.80;;;9.40;77.20;;;;;;2066941;28;20185;-71
2023/05/31 03:44:03;;;;;;;4.10;2.23;;;9.40;77.30;;;;;;2067879;28;20186;-69
2023/05/31 03:45:05;;;;;;;4.10;2.40;;;9.50;77.10;;;;;;2060423;28;20207;-70
2023/05/31 03:46:06;;;;;;;3.97;2.03;;;9.50;76.50;;;;;;2059449;28;20243;-70
2023/05/31 03:47:07;;;;;;;3.40;2.25;;;9.50;76.30;;;;;;2052449;28;20606;-69
2023/05/31 03:48:08;;;;;;;3.80;1.98;;;9.50;76.60;;;;;;2052650;28;20250;-69
2023/05/31 03:49:09;;;;;;;2.37;1.70;;;9.50;76.50;;;;;;2053360;28;20245;-69
2023/05/31 03:50:10;;;;;;;3.33;2.00;;;9.50;77.10;;;;;;2055934;28;20190;-69
2023/05/31 03:51:12;;;;;;;2.60;1.67;;;9.50;76.80;;;;;;2062438;28;20199;-70
2023/05/31 03:52:13;;;;;;;6.68;2.15;;;9.50;76.70;;;;;;2056007;28;20244;-69
2023/05/31 03:53:14;;;;;;;3.10;1.97;;;9.50;76.50;;;;;;2047551;28;20619;-69
2023/05/31 03:54:14;;;;;;;5.57;2.40;;;9.50;76.60;;;;;;2055234;28;20204;-70
2023/05/31 03:55:15;;;;;;;3.33;2.00;;;9.50;76.80;;;;;;2060189;28;20278;-69
2023/05/31 03:56:16;;;;;;;4.83;2.07;;;9.50;76.60;;;;;;2063477;28;20195;-69
2023/05/31 03:57:17;;;;;;;3.35;1.80;;;9.50;76.50;;;;;;2059469;28;20198;-69
2023/05/31 03:58:19;;;;;;;2.73;2.00;;;9.60;76.50;;;;;;2068075;28;20841;-69
2023/05/31 03:59:20;;;;;;;3.60;2.17;;;9.60;76.00;;;;;;2064733;28;20256;-69
2023/05/31 04:00:21;;;;;;;3.60;2.10;;;9.60;75.60;;;;;;2047509;28;20242;-69
2023/05/31 04:01:22;;;;;;;2.63;2.08;;;9.50;75.70;;;;;;2062445;28;20282;-69
2023/05/31 04:02:22;;;;;;;4.43;2.00;;;9.70;76.80;;;;;;2063204;28;20293;-69
2023/05/31 04:03:23;;;;;;;4.30;1.80;;;9.70;75.80;;;;;;2059296;28;20325;-69
2023/05/31 04:04:25;;;;;;;3.57;1.80;;;9.70;75.40;;;;;;2051678;28;20609;-69
2023/05/31 04:05:26;;;;;;;3.22;1.92;;;9.80;75.60;;;;;;2061523;28;20226;-69
2023/05/31 04:06:28;;;;;;;3.85;2.05;;;9.70;75.50;;;;;;2059966;28;20584;-69
2023/05/31 04:07:29;;;;;;;4.07;1.90;;;9.80;75.30;;;;;;2059506;28;20296;-69
2023/05/31 04:08:30;;;;;;;4.13;1.92;;;9.70;76.10;;;;;;2055381;28;20240;-69
2023/05/31 04:09:31;;;;;;;4.93;2.00;;;9.80;76.00;;;;;;2057205;28;20257;-69
2023/05/31 04:10:33;;;;;;;4.50;2.20;;;9.80;75.60;;;;;;2063365;28;20245;-69
2023/05/31 04:11:33;;;;;;;4.05;2.38;;;9.80;75.60;;;;;;2062926;28;20232;-69
2023/05/31 04:12:34;;;;;;;3.07;2.00;;;9.90;75.10;;;;;;2055253;28;20291;-69
2023/05/31 04:13:35;;;;;;;5.88;2.20;;;9.90;75.10;;;;;;2057503;28;20234;-69
2023/05/31 04:14:36;;;;;;;3.53;2.07;;;9.90;74.60;;;;;;2060245;28;20332;-69
2023/05/31 04:15:38;;;;;;;5.43;2.00;;;9.90;74.20;;;;;;2060606;28;20685;-70
2023/05/31 04:16:38;;;;;;;4.25;1.92;;;9.90;74.60;;;;;;2066644;28;20613;-69
2023/05/31 04:17:39;;;;;;;3.00;1.80;;;9.80;75.40;;;;;;2059798;28;20257;-69
2023/05/31 04:18:40;;;;;;;4.28;1.80;;;9.80;75.60;;;;;;2059691;28;20232;-69
2023/05/31 04:19:42;;;;;;;4.97;2.00;;;9.80;75.80;;;;;;2057162;28;20825;-69
2023/05/31 04:20:43;;;;;;;2.75;1.77;;;9.80;76.70;;;;;;2069775;28;20225;-69
2023/05/31 04:21:44;;;;;;;6.15;1.98;;;9.70;77.20;;;;;;2066435;28;20239;-69
2023/05/31 04:22:45;;;;;;;3.53;1.90;;;9.70;77.00;;;;;;2060561;28;20258;-69
2023/05/31 04:23:46;;;;;;;2.40;1.90;;;9.70;77.10;;;;;;2057365;28;20271;-70
2023/05/31 04:24:47;;;;;;;5.77;2.07;;;9.70;76.50;;;;;;2057315;28;20647;-69
2023/05/31 04:25:48;;;;;;;3.55;1.80;;;9.80;76.20;;;;;;2059215;28;20590;-69
2023/05/31 04:26:49;;;;;;;4.00;1.90;;;9.90;76.50;;;;;;2052736;28;20241;-69
2023/05/31 04:27:50;;;;;;;3.47;1.87;;;9.90;75.80;;;;;;2057445;28;20236;-69
2023/05/31 04:28:53;;;;;;;3.00;1.73;;;10.00;75.60;;;;;;2054208;28;20633;-69
2023/05/31 04:29:57;;;;;;;3.17;1.90;;;10.00;75.60;;;;;;2052695;28;20226;-70
2023/05/31 04:30:58;;;;;;;3.85;1.90;;;10.00;75.80;;;;;;2048156;28;20226;-69
2023/05/31 04:31:59;;;;;;;3.65;1.63;;;9.80;75.40;;;;;;2063383;28;20220;-70
2023/05/31 04:33:01;;;;;;;3.25;1.52;;;9.90;76.30;;;;;;2062772;28;20263;-71
2023/05/31 04:34:04;;;;;;;4.32;2.13;;;9.90;75.90;;;;;;2058576;28;20193;-69
2023/05/31 04:35:08;;;;;;;8.18;2.00;;;10.10;76.50;;;;;;2053163;28;20214;-69
2023/05/31 04:36:09;;;;;;;5.53;1.98;;;10.10;76.10;;;;;;2058829;28;20737;-69
2023/05/31 04:37:10;;;;;;;13.55;3.63;;;10.10;75.90;;;;;;2057395;28;20190;-69
2023/05/31 04:38:11;;;;;;;3.63;1.98;;;10.00;75.20;;;;;;2061954;28;20190;-69
2023/05/31 04:39:14;;;;;;;5.07;2.20;;;10.10;75.10;;;;;;2057832;28;20213;-70
2023/05/31 04:40:15;;;;;;;6.68;2.30;;;10.10;75.30;;;;;;2059455;28;20185;-70
2023/05/31 04:41:15;;;;;;;3.23;1.80;;;10.20;75.30;;;;;;2055655;28;20235;-69
2023/05/31 04:42:16;;;;;;;3.30;1.97;;;10.10;75.60;;;;;;2049372;28;20199;-70
2023/05/31 04:43:17;;;;;;;3.57;2.30;;;10.20;75.60;;;;;;2053454;28;20315;-69
2023/05/31 04:44:19;;;;;;;3.80;1.97;;;10.20;74.00;;;;;;2057269;28;20485;-70
2023/05/31 04:45:19;;;;;;;4.85;2.20;;;10.10;74.90;;;;;;2053647;28;20232;-69
2023/05/31 04:46:22;;;;;;;10.97;3.27;;;10.20;74.90;;;;;;2050410;28;20282;-69
2023/05/31 04:47:24;;;;;;;5.00;2.00;;;10.20;75.00;;;;;;2049073;28;20233;-69
2023/05/31 04:48:26;;;;;;;3.53;1.90;;;10.30;74.90;;;;;;2057144;28;20226;-69
2023/05/31 04:49:27;;;;;;;4.07;2.00;;;10.20;74.40;;;;;;2057552;28;20599;-69
2023/05/31 04:50:28;;;;;;;5.27;1.90;;;10.20;74.60;;;;;;2062364;28;20243;-69
2023/05/31 04:51:31;;;;;;;5.85;2.03;;;10.40;74.10;;;;;;2047453;28;20246;-70
2023/05/31 04:52:32;;;;;;;5.53;2.00;;;10.30;74.20;;;;;;2056206;28;20237;-69
2023/05/31 04:53:33;;;;;;;5.75;1.88;;;10.30;74.10;;;;;;2068283;28;21045;-69
2023/05/31 04:54:34;;;;;;;3.77;1.90;;;10.30;74.10;;;;;;2061353;28;20240;-71
2023/05/31 04:55:35;;;;;;;4.63;2.03;;;10.30;75.20;;;;;;2054873;28;20266;-69
2023/05/31 04:56:35;;;;;;;5.10;1.80;;;10.30;73.60;;;;;;2055222;28;20819;-69
2023/05/31 04:57:37;;;;;;;3.27;1.83;;;10.40;72.50;;;;;;2055405;28;20266;-70
2023/05/31 04:58:41;;;;;;;7.80;2.80;;;10.50;72.50;;;;;;2059934;28;20232;-69
2023/05/31 04:59:42;;;;;;;5.00;2.00;;;10.50;71.80;;;;;;2056704;28;20286;-69
2023/05/31 05:00:45;;;;;;;4.53;2.17;;;10.60;71.90;;;;;;2059509;28;20743;-69
2023/05/31 05:01:46;;;;;;;4.18;2.03;;;10.60;71.30;;;;;;2060874;28;20231;-69
2023/05/31 05:02:47;;;;;;;5.15;2.97;;;10.60;71.20;;;;;;2064788;28;20225;-69
2023/05/31 05:03:47;;;;;;;3.93;2.13;;;10.60;70.80;;;;;;2058859;28;20239;-69
2023/05/31 05:04:51;;;;;;;3.40;2.10;;;10.50;71.20;;;;;;2062701;28;20333;-69
2023/05/31 05:05:52;;;;;;;2.83;1.90;;;10.60;71.30;;;;;;2060940;28;20299;-69
2023/05/31 05:06:53;;;;;;;4.40;1.70;;;10.70;71.40;;;;;;2064820;28;20222;-69
2023/05/31 05:07:53;;;;;;;5.10;1.73;;;10.70;71.10;;;;;;2070001;28;20634;-71
2023/05/31 05:08:56;;;;;;;2.70;1.80;;;10.70;70.20;;;;;;2063743;28;20222;-69
2023/05/31 05:09:57;;;;;;;2.15;1.70;;;10.70;69.30;;;;;;2058464;28;20234;-69
2023/05/31 05:10:58;;;;;;;5.07;3.20;;;10.70;69.50;;;;;;2064451;28;20320;-69
2023/05/31 05:12:00;;;;;;;2.75;1.80;;;10.60;69.00;;;;;;2064507;28;20291;-69
2023/05/31 05:13:00;;;;;;;2.90;1.75;;;10.60;70.20;;;;;;2062697;28;20206;-71
2023/05/31 05:14:01;;;;;;;3.03;2.00;;;10.60;69.70;;;;;;2056606;28;20683;-70
2023/05/31 05:15:02;;;;;;;3.37;1.80;;;10.60;71.10;;;;;;2063177;28;20645;-68
2023/05/31 05:16:04;;;;;;;2.78;1.88;;;10.80;70.60;;;;;;2033639;29;20188;-70
2023/05/31 05:17:06;;;;;;;2.78;1.90;;;10.90;69.00;;;;;;2047184;28;20192;-70
2023/05/31 05:18:06;;;;;;;4.47;2.55;;;11.00;68.50;;;;;;2053756;28;20188;-70
2023/05/31 05:19:07;;;;;;;4.53;2.20;;;11.00;71.00;;;;;;2063589;28;20289;-70
2023/05/31 05:20:10;;;;;;;4.00;1.90;;;11.00;69.60;;;;;;2056205;28;20226;-70
2023/05/31 05:21:11;;;;;;;3.10;1.63;;;11.00;69.60;;;;;;2059171;28;20187;-67
2023/05/31 05:22:12;;;;;;;5.13;1.70;;;10.90;68.80;;;;;;2055647;28;20183;-70
2023/05/31 05:23:13;;;;;;;4.63;2.10;;;11.00;67.40;;;;;;2063845;28;20187;-70
2023/05/31 05:24:15;;;;;;;2.10;1.90;;;10.90;67.20;;;;;;2069424;28;20181;-70
2023/05/31 05:25:15;;;;;;;3.53;1.88;;;11.00;67.20;;;;;;2060687;28;20699;-69
2023/05/31 05:26:17;;;;;;;3.47;2.00;;;11.00;66.80;;;;;;2052586;28;20191;-70